PDT,Max TemperatureF,Mean TemperatureF,Min TemperatureF,Max Dew PointF,MeanDew PointF,Min DewpointF,Max Humidity, Mean Humidity, Min Humidity, Max Sea Level PressureIn, Mean Sea Level PressureIn, Min Sea Level PressureIn, Max VisibilityMiles, Mean VisibilityMiles, Min VisibilityMiles, Max Wind SpeedMPH, Mean Wind SpeedMPH, Max Gust SpeedMPH,PrecipitationIn, CloudCover, Events, WindDirDegrees
2011-10-1,71,64,57,57,54,50,100,73,46,29.99,29.95,29.90,10.0,9.8,5.0,18,7,25,0.00,7,,136
2011-10-2,68,62,57,55,52,48,88,70,49,30.03,29.99,29.94,10.0,10.0,10.0,20,10,24,0.03,6,,135
2011-10-3,59,56,53,57,53,50,100,93,77,29.93,29.91,29.88,10.0,7.5,0.2,18,9,23,0.42,6,,121
2011-10-4,57,54,50,54,51,48,100,92,72,29.92,29.79,29.61,10.0,6.2,0.2,25,8,33,0.49,5,,134
2011-10-5,59,52,46,50,47,45,100,88,59,29.84,29.74,29.64,10.0,8.6,0.2,14,8,20,0.14,6,,130
2011-10-6,60,54,48,50,48,43,100,84,52,30.16,29.99,29.79,10.0,9.1,1.2,18,9,24,0.21,5,,351
2011-10-7,64,56,48,54,49,46,100,84,55,30.25,30.22,30.16,10.0,10.0,10.0,15,4,22,0.00,3,,290
2011-10-8,59,54,48,54,51,46,100,92,82,30.21,30.18,30.15,10.0,9.1,0.5,12,6,,0.00,7,,303
2011-10-9,64,57,50,57,53,48,100,88,63,30.14,30.06,29.95,10.0,8.5,0.2,14,5,17,0.00,4,,263
2011-10-10,68,64,59,66,61,57,100,94,83,29.95,29.88,29.82,10.0,7.4,1.0,18,8,,0.48,7,,124
2011-10-11,68,60,51,59,55,50,100,84,52,30.19,30.10,29.97,10.0,8.6,0.2,13,4,,0.00,3,,207
2011-10-12,64,56,48,55,51,48,100,90,68,30.20,30.16,30.11,10.0,5.6,0.2,15,7,20,0.00,4,,193
2011-10-13,71,60,48,59,52,48,100,87,50,30.12,30.01,29.93,10.0,8.8,3.0,16,8,,0.00,1,,152
2011-10-14,69,58,48,59,53,48,100,84,64,29.93,29.90,29.87,10.0,9.4,1.0,14,7,,0.00,0,,181
2011-10-15,69,61,53,61,55,52,100,91,68,30.00,29.93,29.88,10.0,9.4,5.0,15,7,,0.00,2,,177
2011-10-16,59,57,55,57,55,55,100,95,88,30.17,30.10,29.99,10.0,9.4,5.0,10,2,,0.00,8,,297
2011-10-17,73,62,51,63,56,52,100,88,57,30.17,30.11,30.04,10.0,9.2,0.2,12,3,,0.00,3,,145
2011-10-18,71,62,53,61,55,52,100,89,64,30.06,30.04,30.01,10.0,7.6,0.2,17,7,,0.00,2,,161
2011-10-19,59,56,51,55,52,50,100,87,72,30.12,30.09,30.05,10.0,9.6,5.0,10,2,,0.00,8,,335
2011-10-20,57,54,50,54,52,50,100,93,82,30.20,30.11,30.05,10.0,8.4,1.8,9,1,,0.00,8,,301
2011-10-21,68,60,53,55,52,48,100,83,60,30.29,30.25,30.19,10.0,10.0,10.0,17,4,21,0.00,4,,301
2011-10-22,62,56,51,55,54,52,100,95,77,30.27,30.21,30.11,10.0,8.0,0.2,17,2,22,0.00,6,,289
2011-10-23,68,59,50,59,54,50,100,90,64,30.10,30.06,30.02,10.0,8.7,0.5,16,7,20,0.00,4,,232
2011-10-24,59,52,46,54,48,45,94,83,63,30.13,30.11,30.08,10.0,8.8,5.0,15,6,20,0.00,4,,302
2011-10-25,57,49,41,46,45,41,100,86,63,30.21,30.16,30.13,10.0,8.6,5.0,18,4,22,0.00,2,,254
2011-10-26,60,48,37,48,41,36,100,84,52,30.25,30.20,30.16,10.0,9.9,8.0,18,8,21,0.00,0,,181
2011-10-27,64,52,39,50,43,37,100,85,42,30.16,30.10,30.07,10.0,9.7,7.0,12,6,,0.00,0,,145
2011-10-28,59,50,41,52,45,37,100,90,72,30.25,30.18,30.12,10.0,9.8,2.0,15,4,,0.00,0,,220
2011-10-29,64,52,41,55,48,41,100,90,59,30.27,30.24,30.21,10.0,8.4,0.2,16,8,22,0.00,2,,192
2011-10-30,59,55,51,57,55,52,100,99,88,30.24,30.21,30.18,10.0,2.4,0.2,14,4,18,0.00,8,,299
2011-10-31,59,52,46,55,49,43,100,87,59,30.25,30.23,30.20,10.0,7.6,0.2,16,11,24,0.00,4,,311